PWSweather.com
Personal Weather Stations
Station Observations
SHAHALMS1
Eftra, Falkenberg, HA

EftraFalkenberg, HA

Lat: 56.85, Lon: 12.65

Elevation: 140

Station Type:

http://hem.passagen.se/risarp101

High Low Average
Temperature 52.3°F11.3°C 43.7°F6.5°C 47.7°F8.7°C
Dew Point 43.1°F6.2°C 39.5°F4.2°C 40.6°F4.8°C
Winds 11.3 mph 18.2 kmh Calm Calm 7.0 mph E11.3 kmh E
Wind Gusts 25.4 mph40.9 kmh -- 14.0 mph22.5 kmh
Humidity 86% 63% 77%
Pressure 29.83 in1010.2 mb 29.47 in998.0 mb -
Precipitation 0.00 in0.0 mm - -
Hour Temp Dew Point Humidity Winds Wind Gusts Pressure Precip Precip Rate Daily Precip Total
12:00 AM 45.5°F7.5°C 41.6°F5.3°C 86% 4.9 mph ESE7.9 kmh ESE 11.8 mph19.0 kmh 29.83 in1010.2 mb 0.00 in0.0 mm 0.00 in0.0 mm 0.00 in0.0 mm
12:15 AM 45.1°F7.3°C 41.2°F5.1°C 86% 5.3 mph SE8.5 kmh SE 11.5 mph18.5 kmh 29.83 in1010.2 mb 0.00 in0.0 mm 0.00 in0.0 mm 0.00 in0.0 mm
12:30 AM 44.6°F7.0°C 40.4°F4.7°C 85% 5.7 mph ESE9.2 kmh ESE 10.0 mph16.1 kmh 29.83 in1010.2 mb 0.00 in0.0 mm 0.00 in0.0 mm 0.00 in0.0 mm
12:45 AM 44.2°F6.8°C 40.3°F4.6°C 86% 5.7 mph E9.2 kmh E 10.0 mph16.1 kmh 29.83 in1010.2 mb 0.00 in0.0 mm 0.00 in0.0 mm 0.00 in0.0 mm
01:00 AM 44.1°F6.7°C 40.1°F4.5°C 86% 6.7 mph ESE10.8 kmh ESE 11.8 mph19.0 kmh 29.83 in1010.2 mb 0.00 in0.0 mm 0.00 in0.0 mm 0.00 in0.0 mm
01:15 AM 44.1°F6.7°C 40.1°F4.5°C 86% 6.5 mph E10.5 kmh E 11.8 mph19.0 kmh 29.83 in1010.2 mb 0.00 in0.0 mm 0.00 in0.0 mm 0.00 in0.0 mm
01:30 AM 44.1°F6.7°C 40.1°F4.5°C 86% 6.2 mph ESE10.0 kmh ESE 14.0 mph22.5 kmh 29.83 in1010.2 mb 0.00 in0.0 mm 0.00 in0.0 mm 0.00 in0.0 mm
01:45 AM 44.1°F6.7°C 39.8°F4.3°C 85% 1.5 mph E2.4 kmh E 7.9 mph12.7 kmh 29.83 in1010.2 mb 0.00 in0.0 mm 0.00 in0.0 mm 0.00 in0.0 mm
02:00 AM 43.9°F6.6°C 39.7°F4.3°C 85% 1.2 mph ESE1.9 kmh ESE 7.5 mph12.1 kmh 29.83 in1010.2 mb 0.00 in0.0 mm 0.00 in0.0 mm 0.00 in0.0 mm
02:15 AM 44.1°F6.7°C 39.8°F4.3°C 85% 0.4 mph ESE0.6 kmh ESE 5.0 mph8.0 kmh 29.83 in1010.2 mb 0.00 in0.0 mm 0.00 in0.0 mm 0.00 in0.0 mm
02:30 AM 44.1°F6.7°C 39.8°F4.3°C 85% 3.9 mph E6.3 kmh E 8.6 mph13.8 kmh 29.83 in1010.2 mb 0.00 in0.0 mm 0.00 in0.0 mm 0.00 in0.0 mm
02:45 AM 44.2°F6.8°C 40.0°F4.4°C 85% 3.6 mph ESE5.8 kmh ESE 10.0 mph16.1 kmh 29.83 in1010.2 mb 0.00 in0.0 mm 0.00 in0.0 mm 0.00 in0.0 mm
03:00 AM 43.9°F6.6°C 39.7°F4.3°C 85% 0.9 mph E1.4 kmh E 6.8 mph10.9 kmh 29.80 in1009.1 mb 0.00 in0.0 mm 0.00 in0.0 mm 0.00 in0.0 mm
03:15 AM 43.7°F6.5°C 39.5°F4.2°C 85% Calm Calm -- 29.80 in1009.1 mb 0.00 in0.0 mm 0.00 in0.0 mm 0.00 in0.0 mm
03:30 AM 43.7°F6.5°C 39.5°F4.2°C 85% 1.4 mph E2.3 kmh E 6.4 mph10.3 kmh 29.80 in1009.1 mb 0.00 in0.0 mm 0.00 in0.0 mm 0.00 in0.0 mm
03:45 AM 43.7°F6.5°C 39.5°F4.2°C 85% Calm Calm -- 29.80 in1009.1 mb 0.00 in0.0 mm 0.00 in0.0 mm 0.00 in0.0 mm
04:00 AM 43.9°F6.6°C 39.7°F4.3°C 85% Calm Calm -- 29.80 in1009.1 mb 0.00 in0.0 mm 0.00 in0.0 mm 0.00 in0.0 mm
04:15 AM 43.9°F6.6°C 39.7°F4.3°C 85% 1.5 mph E2.4 kmh E 7.9 mph12.7 kmh 29.80 in1009.1 mb 0.00 in0.0 mm 0.00 in0.0 mm 0.00 in0.0 mm
04:30 AM 44.2°F6.8°C 40.0°F4.4°C 85% 3.4 mph E5.5 kmh E 8.6 mph13.8 kmh 29.80 in1009.1 mb 0.00 in0.0 mm 0.00 in0.0 mm 0.00 in0.0 mm
04:45 AM 44.6°F7.0°C 40.4°F4.7°C 85% 4.3 mph E6.9 kmh E 10.0 mph16.1 kmh 29.77 in1008.1 mb 0.00 in0.0 mm 0.00 in0.0 mm 0.00 in0.0 mm
05:00 AM 44.8°F7.1°C 40.2°F4.6°C 84% 5.9 mph E9.5 kmh E 13.6 mph21.9 kmh 29.80 in1009.1 mb 0.00 in0.0 mm 0.00 in0.0 mm 0.00 in0.0 mm
05:15 AM 44.8°F7.1°C 40.2°F4.6°C 84% 3.7 mph E6.0 kmh E 9.3 mph15.0 kmh 29.80 in1009.1 mb 0.00 in0.0 mm 0.00 in0.0 mm 0.00 in0.0 mm
05:30 AM 45.0°F7.2°C 40.4°F4.7°C 84% 4.4 mph E7.1 kmh E 14.7 mph23.7 kmh 29.80 in1009.1 mb 0.00 in0.0 mm 0.00 in0.0 mm 0.00 in0.0 mm
05:45 AM 45.1°F7.3°C 40.3°F4.6°C 83% 5.6 mph E9.0 kmh E 12.9 mph20.8 kmh 29.80 in1009.1 mb 0.00 in0.0 mm 0.00 in0.0 mm 0.00 in0.0 mm
06:00 AM 45.5°F7.5°C 40.3°F4.6°C 82% 6.1 mph E9.8 kmh E 13.6 mph21.9 kmh 29.80 in1009.1 mb 0.00 in0.0 mm 0.00 in0.0 mm 0.00 in0.0 mm
06:15 AM 45.7°F7.6°C 40.2°F4.6°C 81% 8.1 mph E13.0 kmh E 15.4 mph24.8 kmh 29.77 in1008.1 mb 0.00 in0.0 mm 0.00 in0.0 mm 0.00 in0.0 mm
06:30 AM 45.7°F7.6°C 40.2°F4.6°C 81% 6.4 mph E10.3 kmh E 12.9 mph20.8 kmh 29.80 in1009.1 mb 0.00 in0.0 mm 0.00 in0.0 mm 0.00 in0.0 mm
06:45 AM 45.7°F7.6°C 40.5°F4.7°C 82% 7.8 mph E12.6 kmh E 14.0 mph22.5 kmh 29.80 in1009.1 mb 0.00 in0.0 mm 0.00 in0.0 mm 0.00 in0.0 mm
07:00 AM 45.5°F7.5°C 40.3°F4.6°C 82% 6.0 mph E9.7 kmh E 12.9 mph20.8 kmh 29.77 in1008.1 mb 0.00 in0.0 mm 0.00 in0.0 mm 0.00 in0.0 mm
07:15 AM 45.7°F7.6°C 40.5°F4.7°C 82% 6.7 mph E10.8 kmh E 16.1 mph25.9 kmh 29.77 in1008.1 mb 0.00 in0.0 mm 0.00 in0.0 mm 0.00 in0.0 mm
07:30 AM 45.7°F7.6°C 40.5°F4.7°C 82% 7.1 mph E11.4 kmh E 14.0 mph22.5 kmh 29.80 in1009.1 mb 0.00 in0.0 mm 0.00 in0.0 mm 0.00 in0.0 mm
07:45 AM 45.7°F7.6°C 40.2°F4.6°C 81% 6.4 mph E10.3 kmh E 15.0 mph24.1 kmh 29.80 in1009.1 mb 0.00 in0.0 mm 0.00 in0.0 mm 0.00 in0.0 mm
08:00 AM 45.9°F7.7°C 40.4°F4.7°C 81% 5.6 mph E9.0 kmh E 11.8 mph19.0 kmh 29.83 in1010.2 mb 0.00 in0.0 mm 0.00 in0.0 mm 0.00 in0.0 mm
08:15 AM 46.0°F7.8°C 40.2°F4.6°C 80% 5.2 mph E8.4 kmh E 11.8 mph19.0 kmh 29.80 in1009.1 mb 0.00 in0.0 mm 0.00 in0.0 mm 0.00 in0.0 mm
08:30 AM 46.4°F8.0°C 40.2°F4.6°C 79% 7.7 mph E12.4 kmh E 15.7 mph25.3 kmh 29.80 in1009.1 mb 0.00 in0.0 mm 0.00 in0.0 mm 0.00 in0.0 mm
08:45 AM 46.8°F8.2°C 40.6°F4.8°C 79% 6.1 mph E9.8 kmh E 12.2 mph19.6 kmh 29.80 in1009.1 mb 0.00 in0.0 mm 0.00 in0.0 mm 0.00 in0.0 mm
09:00 AM 47.1°F8.4°C 40.3°F4.6°C 77% 8.2 mph E13.2 kmh E 16.1 mph25.9 kmh 29.80 in1009.1 mb 0.00 in0.0 mm 0.00 in0.0 mm 0.00 in0.0 mm
09:15 AM 47.3°F8.5°C 40.1°F4.5°C 76% 7.4 mph E11.9 kmh E 16.5 mph26.6 kmh 29.80 in1009.1 mb 0.00 in0.0 mm 0.00 in0.0 mm 0.00 in0.0 mm
09:30 AM 47.7°F8.7°C 40.5°F4.7°C 76% 7.4 mph E11.9 kmh E 15.7 mph25.3 kmh 29.80 in1009.1 mb 0.00 in0.0 mm 0.00 in0.0 mm 0.00 in0.0 mm
09:45 AM 47.8°F8.8°C 40.0°F4.4°C 74% 7.3 mph E11.7 kmh E 13.6 mph21.9 kmh 29.77 in1008.1 mb 0.00 in0.0 mm 0.00 in0.0 mm 0.00 in0.0 mm
10:00 AM 48.4°F9.1°C 40.1°F4.5°C 73% 6.7 mph E10.8 kmh E 15.4 mph24.8 kmh 29.77 in1008.1 mb 0.00 in0.0 mm 0.00 in0.0 mm 0.00 in0.0 mm
10:15 AM 48.7°F9.3°C 39.8°F4.3°C 71% 7.7 mph E12.4 kmh E 12.9 mph20.8 kmh 29.74 in1007.1 mb 0.00 in0.0 mm 0.00 in0.0 mm 0.00 in0.0 mm
10:30 AM 49.3°F9.6°C 39.9°F4.4°C 70% 7.5 mph E12.1 kmh E 14.0 mph22.5 kmh 29.77 in1008.1 mb 0.00 in0.0 mm 0.00 in0.0 mm 0.00 in0.0 mm
10:45 AM 49.6°F9.8°C 39.9°F4.4°C 69% 7.6 mph E12.2 kmh E 16.1 mph25.9 kmh 29.74 in1007.1 mb 0.00 in0.0 mm 0.00 in0.0 mm 0.00 in0.0 mm
11:00 AM 49.8°F9.9°C 40.1°F4.5°C 69% 7.4 mph E11.9 kmh E 12.5 mph20.1 kmh 29.77 in1008.1 mb 0.00 in0.0 mm 0.00 in0.0 mm 0.00 in0.0 mm
11:15 AM 50.2°F10.1°C 40.4°F4.7°C 69% 8.2 mph E13.2 kmh E 12.9 mph20.8 kmh 29.74 in1007.1 mb 0.00 in0.0 mm 0.00 in0.0 mm 0.00 in0.0 mm
11:30 AM 50.4°F10.2°C 40.6°F4.8°C 69% 8.5 mph E13.7 kmh E 14.0 mph22.5 kmh 29.74 in1007.1 mb 0.00 in0.0 mm 0.00 in0.0 mm 0.00 in0.0 mm
11:45 AM 51.1°F10.6°C 40.9°F4.9°C 68% 8.3 mph E13.4 kmh E 14.0 mph22.5 kmh 29.71 in1006.1 mb 0.00 in0.0 mm 0.00 in0.0 mm 0.00 in0.0 mm
12:00 PM 51.4°F10.8°C 40.8°F4.9°C 67% 7.9 mph E12.7 kmh E 15.0 mph24.1 kmh 29.74 in1007.1 mb 0.00 in0.0 mm 0.00 in0.0 mm 0.00 in0.0 mm
12:15 PM 51.8°F11.0°C 40.8°F4.9°C 66% 8.1 mph E13.0 kmh E 16.1 mph25.9 kmh 29.74 in1007.1 mb 0.00 in0.0 mm 0.00 in0.0 mm 0.00 in0.0 mm
12:30 PM 51.8°F11.0°C 40.8°F4.9°C 66% 8.4 mph E13.5 kmh E 14.0 mph22.5 kmh 29.74 in1007.1 mb 0.00 in0.0 mm 0.00 in0.0 mm 0.00 in0.0 mm
12:45 PM 52.0°F11.1°C 40.2°F4.6°C 64% 8.3 mph E13.4 kmh E 16.5 mph26.6 kmh 29.71 in1006.1 mb 0.00 in0.0 mm 0.00 in0.0 mm 0.00 in0.0 mm
01:00 PM 52.2°F11.2°C 40.3°F4.6°C 64% 7.4 mph E11.9 kmh E 19.7 mph31.7 kmh 29.71 in1006.1 mb 0.00 in0.0 mm 0.00 in0.0 mm 0.00 in0.0 mm
01:15 PM 52.3°F11.3°C 40.1°F4.5°C 63% 9.2 mph E14.8 kmh E 16.1 mph25.9 kmh 29.71 in1006.1 mb 0.00 in0.0 mm 0.00 in0.0 mm 0.00 in0.0 mm
01:30 PM 52.3°F11.3°C 40.1°F4.5°C 63% 8.9 mph E14.3 kmh E 16.5 mph26.6 kmh 29.71 in1006.1 mb 0.00 in0.0 mm 0.00 in0.0 mm 0.00 in0.0 mm
01:45 PM 52.2°F11.2°C 39.9°F4.4°C 63% 8.3 mph E13.4 kmh E 12.9 mph20.8 kmh 29.71 in1006.1 mb 0.00 in0.0 mm 0.00 in0.0 mm 0.00 in0.0 mm
02:00 PM 52.0°F11.1°C 40.2°F4.6°C 64% 5.7 mph E9.2 kmh E 13.6 mph21.9 kmh 29.68 in1005.1 mb 0.00 in0.0 mm 0.00 in0.0 mm 0.00 in0.0 mm
02:15 PM 52.2°F11.2°C 40.3°F4.6°C 64% 4.5 mph ENE7.2 kmh ENE 10.4 mph16.7 kmh 29.65 in1004.1 mb 0.00 in0.0 mm 0.00 in0.0 mm 0.00 in0.0 mm
02:30 PM 51.8°F11.0°C 40.4°F4.7°C 65% 4.4 mph E7.1 kmh E 12.5 mph20.1 kmh 29.71 in1006.1 mb 0.00 in0.0 mm 0.00 in0.0 mm 0.00 in0.0 mm
02:45 PM 51.3°F10.7°C 40.3°F4.6°C 66% 5.7 mph E9.2 kmh E 13.6 mph21.9 kmh 29.68 in1005.1 mb 0.00 in0.0 mm 0.00 in0.0 mm 0.00 in0.0 mm
03:00 PM 50.7°F10.4°C 40.2°F4.6°C 67% 6.9 mph E11.1 kmh E 12.9 mph20.8 kmh 29.68 in1005.1 mb 0.00 in0.0 mm 0.00 in0.0 mm 0.00 in0.0 mm
03:15 PM 50.5°F10.3°C 40.0°F4.4°C 67% 7.4 mph E11.9 kmh E 15.0 mph24.1 kmh 29.68 in1005.1 mb 0.00 in0.0 mm 0.00 in0.0 mm 0.00 in0.0 mm
03:30 PM 50.2°F10.1°C 40.0°F4.4°C 68% 7.4 mph E11.9 kmh E 12.2 mph19.6 kmh 29.71 in1006.1 mb 0.00 in0.0 mm 0.00 in0.0 mm 0.00 in0.0 mm
03:46 PM 50.0°F10.0°C 40.2°F4.6°C 69% 7.4 mph E11.9 kmh E 14.0 mph22.5 kmh 29.68 in1005.1 mb 0.00 in0.0 mm 0.00 in0.0 mm 0.00 in0.0 mm
04:00 PM 49.3°F9.6°C 39.5°F4.2°C 69% 6.5 mph E10.5 kmh E 11.8 mph19.0 kmh 29.65 in1004.1 mb 0.00 in0.0 mm 0.00 in0.0 mm 0.00 in0.0 mm
04:15 PM 48.9°F9.4°C 39.6°F4.2°C 70% 6.4 mph E10.3 kmh E 12.5 mph20.1 kmh 29.65 in1004.1 mb 0.00 in0.0 mm 0.00 in0.0 mm 0.00 in0.0 mm
04:30 PM 48.7°F9.3°C 39.8°F4.3°C 71% 5.8 mph E9.3 kmh E 12.9 mph20.8 kmh 29.65 in1004.1 mb 0.00 in0.0 mm 0.00 in0.0 mm 0.00 in0.0 mm
04:45 PM 48.6°F9.2°C 39.6°F4.2°C 71% 5.6 mph E9.0 kmh E 12.9 mph20.8 kmh 29.62 in1003.0 mb 0.00 in0.0 mm 0.00 in0.0 mm 0.00 in0.0 mm
05:00 PM 48.6°F9.2°C 39.6°F4.2°C 71% 7.0 mph E11.3 kmh E 14.0 mph22.5 kmh 29.59 in1002.0 mb 0.00 in0.0 mm 0.00 in0.0 mm 0.00 in0.0 mm
05:15 PM 48.6°F9.2°C 39.6°F4.2°C 71% 6.6 mph E10.6 kmh E 12.9 mph20.8 kmh 29.62 in1003.0 mb 0.00 in0.0 mm 0.00 in0.0 mm 0.00 in0.0 mm
05:30 PM 48.4°F9.1°C 39.8°F4.3°C 72% 6.9 mph E11.1 kmh E 14.7 mph23.7 kmh 29.62 in1003.0 mb 0.00 in0.0 mm 0.00 in0.0 mm 0.00 in0.0 mm
05:45 PM 48.2°F9.0°C 39.9°F4.4°C 73% 7.9 mph E12.7 kmh E 14.0 mph22.5 kmh 29.59 in1002.0 mb 0.00 in0.0 mm 0.00 in0.0 mm 0.00 in0.0 mm
06:00 PM 48.4°F9.1°C 40.1°F4.5°C 73% 9.3 mph E15.0 kmh E 19.7 mph31.7 kmh 29.59 in1002.0 mb 0.00 in0.0 mm 0.00 in0.0 mm 0.00 in0.0 mm
06:15 PM 48.4°F9.1°C 40.5°F4.7°C 74% 9.1 mph E14.6 kmh E 20.4 mph32.8 kmh 29.59 in1002.0 mb 0.00 in0.0 mm 0.00 in0.0 mm 0.00 in0.0 mm
06:30 PM 48.2°F9.0°C 40.6°F4.8°C 75% 9.1 mph E14.6 kmh E 17.5 mph28.2 kmh 29.59 in1002.0 mb 0.00 in0.0 mm 0.00 in0.0 mm 0.00 in0.0 mm
06:45 PM 48.2°F9.0°C 41.0°F5.0°C 76% 10.0 mph E16.1 kmh E 19.0 mph30.6 kmh 29.59 in1002.0 mb 0.00 in0.0 mm 0.00 in0.0 mm 0.00 in0.0 mm
07:00 PM 48.2°F9.0°C 41.3°F5.2°C 77% 9.1 mph E14.6 kmh E 19.0 mph30.6 kmh 29.59 in1002.0 mb 0.00 in0.0 mm 0.00 in0.0 mm 0.00 in0.0 mm
07:15 PM 48.2°F9.0°C 41.7°F5.4°C 78% 11.3 mph E18.2 kmh E 21.1 mph34.0 kmh 29.56 in1001.0 mb 0.00 in0.0 mm 0.00 in0.0 mm 0.00 in0.0 mm
07:30 PM 48.2°F9.0°C 42.0°F5.6°C 79% 9.0 mph E14.5 kmh E 16.8 mph27.0 kmh 29.56 in1001.0 mb 0.00 in0.0 mm 0.00 in0.0 mm 0.00 in0.0 mm
07:45 PM 48.2°F9.0°C 42.0°F5.6°C 79% 9.5 mph E15.3 kmh E 16.8 mph27.0 kmh 29.56 in1001.0 mb 0.00 in0.0 mm 0.00 in0.0 mm 0.00 in0.0 mm
08:00 PM 48.2°F9.0°C 42.3°F5.7°C 80% 9.4 mph E15.1 kmh E 17.2 mph27.7 kmh 29.56 in1001.0 mb 0.00 in0.0 mm 0.00 in0.0 mm 0.00 in0.0 mm
08:15 PM 48.2°F9.0°C 42.3°F5.7°C 80% 9.9 mph E15.9 kmh E 17.9 mph28.8 kmh 29.56 in1001.0 mb 0.00 in0.0 mm 0.00 in0.0 mm 0.00 in0.0 mm
08:30 PM 48.0°F8.9°C 42.5°F5.8°C 81% 9.1 mph E14.6 kmh E 17.5 mph28.2 kmh 29.56 in1001.0 mb 0.00 in0.0 mm 0.00 in0.0 mm 0.00 in0.0 mm
08:45 PM 48.2°F9.0°C 42.6°F5.9°C 81% 10.0 mph E16.1 kmh E 20.8 mph33.5 kmh 29.56 in1001.0 mb 0.00 in0.0 mm 0.00 in0.0 mm 0.00 in0.0 mm
09:00 PM 48.2°F9.0°C 42.6°F5.9°C 81% 11.1 mph E17.9 kmh E 25.4 mph40.9 kmh 29.56 in1001.0 mb 0.00 in0.0 mm 0.00 in0.0 mm 0.00 in0.0 mm
09:15 PM 48.2°F9.0°C 43.0°F6.1°C 82% 9.5 mph E15.3 kmh E 19.3 mph31.1 kmh 29.53 in1000.0 mb 0.00 in0.0 mm 0.00 in0.0 mm 0.00 in0.0 mm
09:30 PM 48.2°F9.0°C 43.0°F6.1°C 82% 9.3 mph E15.0 kmh E 20.8 mph33.5 kmh 29.53 in1000.0 mb 0.00 in0.0 mm 0.00 in0.0 mm 0.00 in0.0 mm
09:45 PM 48.2°F9.0°C 43.0°F6.1°C 82% 7.8 mph E12.6 kmh E 17.5 mph28.2 kmh 29.56 in1001.0 mb 0.00 in0.0 mm 0.00 in0.0 mm 0.00 in0.0 mm
10:00 PM 48.2°F9.0°C 43.0°F6.1°C 82% 9.1 mph E14.6 kmh E 16.5 mph26.6 kmh 29.53 in1000.0 mb 0.00 in0.0 mm 0.00 in0.0 mm 0.00 in0.0 mm
10:15 PM 48.0°F8.9°C 42.8°F6.0°C 82% 8.2 mph E13.2 kmh E 15.4 mph24.8 kmh 29.53 in1000.0 mb 0.00 in0.0 mm 0.00 in0.0 mm 0.00 in0.0 mm
10:30 PM 48.0°F8.9°C 43.1°F6.2°C 83% 7.7 mph E12.4 kmh E 16.1 mph25.9 kmh 29.50 in999.0 mb 0.00 in0.0 mm 0.00 in0.0 mm 0.00 in0.0 mm
10:45 PM 47.8°F8.8°C 42.9°F6.1°C 83% 7.4 mph E11.9 kmh E 15.4 mph24.8 kmh 29.50 in999.0 mb 0.00 in0.0 mm 0.00 in0.0 mm 0.00 in0.0 mm
11:00 PM 47.5°F8.6°C 42.6°F5.9°C 83% 6.7 mph E10.8 kmh E 14.7 mph23.7 kmh 29.47 in998.0 mb 0.00 in0.0 mm 0.00 in0.0 mm 0.00 in0.0 mm
11:15 PM 47.1°F8.4°C 42.2°F5.7°C 83% 5.4 mph E8.7 kmh E 9.7 mph15.6 kmh 29.50 in999.0 mb 0.00 in0.0 mm 0.00 in0.0 mm 0.00 in0.0 mm
11:30 PM 46.6°F8.1°C 41.7°F5.4°C 83% 5.1 mph E8.2 kmh E 11.5 mph18.5 kmh 29.50 in999.0 mb 0.00 in0.0 mm 0.00 in0.0 mm 0.00 in0.0 mm
11:46 PM 46.2°F7.9°C 41.3°F5.2°C 83% 3.3 mph E5.3 kmh E 9.7 mph15.6 kmh 29.50 in999.0 mb 0.00 in0.0 mm 0.00 in0.0 mm 0.00 in0.0 mm